Time;durP1;ratioP1;P1;durP2;ratioP2;P2;SDS_P1;SDS_P2;PMS_P1;PMS_P2;Temp;Humidity;BMP_temperature;BMP_pressure;BME280_temperature;BME280_humidity;BME280_pressure;Samples;Min_cycle;Max_cycle;Signal;HPM_P1;HPM_P2
2022/02/09 00:09:04;;;;;;;1999.90;999.90;;;9.70;99.90;;;;;;5047684;28;20446;-78
2022/02/09 00:11:38;;;;;;;1999.90;999.90;;;9.60;99.90;;;;;;5045167;28;20950;-78
2022/02/09 00:14:15;;;;;;;1999.90;999.90;;;9.60;99.90;;;;;;5043709;28;20456;-78
2022/02/09 00:19:18;;;;;;;1999.90;999.90;;;9.60;99.90;;;;;;5045700;28;20440;-78
2022/02/09 00:27:54;;;;;;;1999.90;999.90;;;9.60;99.90;;;;;;5045616;28;20831;-78
2022/02/09 00:36:34;;;;;;;1999.90;999.90;;;9.60;99.90;;;;;;5040271;28;20504;-78
2022/02/09 00:41:19;;;;;;;1999.90;999.90;;;9.70;99.90;;;;;;5044688;28;20412;-78
2022/02/09 01:02:43;;;;;;;1999.90;999.90;;;9.80;99.90;;;;;;5044114;28;20478;-78
2022/02/09 01:03:07;;;;;;;1999.90;999.90;;;9.80;99.90;;;;;;5043378;28;20405;-78
2022/02/09 01:42:34;;;;;;;1999.90;999.90;;;9.80;99.90;;;;;;5036702;28;20438;-78
2022/02/09 01:57:48;;;;;;;1999.90;999.90;;;9.80;99.90;;;;;;5035993;28;20406;-77
2022/02/09 02:00:14;;;;;;;1999.90;999.90;;;9.90;99.90;;;;;;5036277;28;20422;-78
2022/02/09 02:02:40;;;;;;;1999.90;999.90;;;9.80;99.90;;;;;;5036279;28;20403;-78
2022/02/09 02:05:06;;;;;;;1999.90;999.90;;;9.80;99.90;;;;;;5035588;28;20461;-78
2022/02/09 02:07:49;;;;;;;1999.90;999.90;;;9.80;99.90;;;;;;5035835;28;20173;-78
2022/02/09 02:10:18;;;;;;;1999.90;999.90;;;9.90;99.90;;;;;;5035933;28;20540;-78
2022/02/09 02:13:32;;;;;;;1999.90;999.90;;;9.90;99.90;;;;;;5036043;28;20446;-78
2022/02/09 02:18:22;;;;;;;1999.90;999.90;;;9.80;99.90;;;;;;5035907;28;20399;-78
2022/02/09 02:21:08;;;;;;;1999.90;999.90;;;9.80;99.90;;;;;;5035661;28;20400;-78
2022/02/09 02:24:07;;;;;;;1999.90;999.90;;;9.90;99.90;;;;;;5036293;28;20470;-77
2022/02/09 02:36:53;;;;;;;1999.90;999.90;;;9.70;99.90;;;;;;4992083;28;20453;-76
2022/02/09 03:09:03;;;;;;;1999.90;999.90;;;9.70;99.90;;;;;;4995509;28;20527;-76
2022/02/09 03:14:19;;;;;;;1999.90;999.90;;;9.70;99.90;;;;;;4994951;28;20404;-76
2022/02/09 03:16:54;;;;;;;1999.90;999.90;;;9.70;99.90;;;;;;4995290;28;20432;-75
2022/02/09 03:24:58;;;;;;;1999.90;999.90;;;9.70;99.90;;;;;;4994736;28;20443;-76
2022/02/09 03:44:22;;;;;;;1999.90;999.90;;;9.70;99.90;;;;;;4994521;28;20409;-76
2022/02/09 03:47:19;;;;;;;1999.90;999.90;;;9.60;99.90;;;;;;4994681;28;20512;-75
2022/02/09 03:52:32;;;;;;;1999.90;999.90;;;9.60;99.90;;;;;;4994822;28;20413;-75
2022/02/09 03:57:25;;;;;;;1999.90;999.90;;;9.70;99.90;;;;;;4994519;28;20402;-76
2022/02/09 03:59:51;;;;;;;1999.90;999.90;;;9.70;99.90;;;;;;4994543;28;20170;-76
2022/02/09 04:02:16;;;;;;;1999.90;999.90;;;9.60;99.90;;;;;;4994446;28;20545;-75
2022/02/09 04:04:43;;;;;;;1999.90;999.90;;;9.60;99.90;;;;;;4994054;28;20245;-76
2022/02/09 04:07:11;;;;;;;1999.90;999.90;;;9.70;99.90;;;;;;4994325;28;20538;-76
2022/02/09 04:09:40;;;;;;;1999.90;999.90;;;9.60;99.90;;;;;;4994312;28;20408;-76
2022/02/09 04:12:18;;;;;;;1999.90;999.90;;;9.60;99.90;;;;;;4993407;28;20444;-75
2022/02/09 04:14:56;;;;;;;1999.90;999.90;;;9.60;99.90;;;;;;4993868;28;20453;-76
2022/02/09 04:20:20;;;;;;;1999.90;999.90;;;9.70;99.90;;;;;;4994449;28;20416;-76
2022/02/09 04:39:02;;;;;;;1999.90;999.90;;;9.70;99.90;;;;;;4994147;28;20405;-76
2022/02/09 04:41:55;;;;;;;1999.90;999.90;;;9.70;99.90;;;;;;4994208;28;20410;-76
2022/02/09 04:44:32;;;;;;;1999.90;999.90;;;9.60;99.90;;;;;;4993542;28;20423;-76
2022/02/09 04:47:24;;;;;;;1999.90;999.90;;;9.60;99.90;;;;;;4993918;28;20405;-76
2022/02/09 04:52:39;;;;;;;1999.90;999.90;;;9.70;99.90;;;;;;4994188;28;20506;-76
2022/02/09 04:57:47;;;;;;;1999.90;999.90;;;9.70;99.90;;;;;;4993500;28;20399;-75
2022/02/09 05:01:01;;;;;;;1999.90;999.90;;;9.70;99.90;;;;;;4993351;28;20405;-76
2022/02/09 05:25:14;;;;;;;1999.90;999.90;;;9.80;99.90;;;;;;4992516;28;20878;-76
2022/02/09 05:27:55;;;;;;;1999.90;999.90;;;9.90;99.90;;;;;;4992908;28;20437;-76
2022/02/09 05:30:22;;;;;;;1999.90;999.90;;;9.70;99.90;;;;;;4992909;28;20410;-76
2022/02/09 05:32:47;;;;;;;1999.90;999.90;;;9.80;99.90;;;;;;4993034;28;20883;-76
2022/02/09 05:35:15;;;;;;;1999.90;999.90;;;9.80;99.90;;;;;;4992385;28;20539;-76
2022/02/09 05:37:40;;;;;;;1999.90;999.90;;;9.70;99.90;;;;;;4991560;28;20182;-76
2022/02/09 05:40:07;;;;;;;1999.90;999.90;;;9.70;99.90;;;;;;4992745;28;20410;-76
2022/02/09 05:42:33;;;;;;;1999.90;999.90;;;9.70;99.90;;;;;;4992677;28;20170;-76
2022/02/09 05:45:05;;;;;;;1999.90;999.90;;;9.80;99.90;;;;;;4992352;28;20431;-76
2022/02/09 05:56:07;;;;;;;1999.90;999.90;;;9.80;99.90;;;;;;4992298;28;20465;-76
2022/02/09 05:58:12;;;;;;;1999.90;999.90;;;9.80;99.90;;;;;;4989456;28;20424;-76
2022/02/09 06:00:41;;;;;;;1999.90;999.90;;;9.80;99.90;;;;;;4992568;28;20452;-76
2022/02/09 06:03:07;;;;;;;1999.90;999.90;;;9.70;99.90;;;;;;4992541;28;20409;-76
2022/02/09 06:05:33;;;;;;;1999.90;999.90;;;9.80;99.90;;;;;;4992134;28;20487;-76
2022/02/09 06:07:59;;;;;;;1999.90;999.90;;;9.80;99.90;;;;;;4992499;28;20811;-75
2022/02/09 06:10:29;;;;;;;1999.90;999.90;;;9.80;99.90;;;;;;4992413;28;20181;-75
2022/02/09 06:13:12;;;;;;;1999.90;999.90;;;9.80;99.90;;;;;;4992454;28;20468;-76
2022/02/09 06:20:57;;;;;;;1999.90;999.90;;;9.90;99.90;;;;;;4992665;28;20460;-77
2022/02/09 06:23:23;;;;;;;1999.90;999.90;;;9.90;99.90;;;;;;4992399;28;20433;-76
2022/02/09 06:25:48;;;;;;;1999.90;999.90;;;9.90;99.90;;;;;;4991842;28;20473;-76
2022/02/09 06:28:14;;;;;;;1999.90;999.90;;;10.00;99.90;;;;;;4992397;28;20422;-76
2022/02/09 06:30:39;;;;;;;1999.90;999.90;;;9.90;99.90;;;;;;4992270;28;20289;-76
2022/02/09 06:33:05;;;;;;;1999.90;999.90;;;9.90;99.90;;;;;;4992698;28;20178;-76
2022/02/09 06:35:31;;;;;;;1999.90;999.90;;;9.90;99.90;;;;;;4994513;28;20201;-76
2022/02/09 06:37:59;;;;;;;1999.90;999.90;;;9.90;99.90;;;;;;4998771;28;20178;-76
2022/02/09 06:40:25;;;;;;;1999.90;999.90;;;9.90;99.90;;;;;;4996980;28;20435;-76
2022/02/09 06:42:50;;;;;;;1999.90;999.90;;;9.90;99.90;;;;;;4995222;28;20420;-75
2022/02/09 06:45:23;;;;;;;1999.90;999.90;;;9.90;99.90;;;;;;4996099;28;20206;-77
2022/02/09 06:47:49;;;;;;;1999.90;999.90;;;9.90;99.90;;;;;;4996153;28;20173;-77
2022/02/09 06:50:33;;;;;;;1999.90;999.90;;;9.90;99.90;;;;;;4995764;28;20438;-76
2022/02/09 06:55:47;;;;;;;1999.90;999.90;;;9.90;99.90;;;;;;4995330;28;20984;-75
2022/02/09 06:58:19;;;;;;;1999.90;999.90;;;9.90;99.90;;;;;;4995720;28;20518;-76
2022/02/09 07:00:45;;;;;;;1999.90;999.90;;;9.80;99.90;;;;;;4995527;28;20444;-76
2022/02/09 07:03:10;;;;;;;1999.90;999.90;;;9.90;99.90;;;;;;4995551;28;20408;-75
2022/02/09 07:05:36;;;;;;;1999.90;999.90;;;9.90;99.90;;;;;;4995137;28;20189;-76
2022/02/09 07:08:02;;;;;;;1999.90;999.90;;;9.90;99.90;;;;;;4995421;28;20669;-75
2022/02/09 07:10:27;;;;;;;1999.90;999.90;;;9.90;99.90;;;;;;4995515;28;20179;-76
2022/02/09 07:12:53;;;;;;;1999.90;999.90;;;9.80;99.90;;;;;;4995387;28;20257;-75
2022/02/09 07:15:25;;;;;;;1999.90;999.90;;;9.80;99.90;;;;;;4995064;28;20201;-76
2022/02/09 07:17:50;;;;;;;1999.90;999.90;;;9.80;99.90;;;;;;4995313;28;20265;-76
2022/02/09 07:20:20;;;;;;;1999.90;999.90;;;9.80;99.90;;;;;;4993979;28;20504;-75
2022/02/09 07:22:49;;;;;;;1999.90;999.90;;;9.80;99.90;;;;;;4995228;28;20162;-76
2022/02/09 07:25:17;;;;;;;1999.90;999.90;;;9.70;99.90;;;;;;4994738;28;20481;-75
2022/02/09 07:30:12;;;;;;;1999.90;999.90;;;9.80;99.90;;;;;;4995054;28;20412;-76
2022/02/09 07:32:38;;;;;;;1999.90;999.90;;;9.80;99.90;;;;;;4994975;28;20819;-76
2022/02/09 07:35:03;;;;;;;1999.90;999.90;;;9.80;99.90;;;;;;4994540;28;20572;-76
2022/02/09 07:37:29;;;;;;;1999.90;999.90;;;9.80;99.90;;;;;;4994900;28;20249;-76
2022/02/09 07:39:57;;;;;;;1999.90;999.90;;;9.80;99.90;;;;;;4993567;28;20414;-76
2022/02/09 07:42:26;;;;;;;1999.90;999.90;;;9.80;99.90;;;;;;4994810;28;20170;-77
2022/02/09 07:45:03;;;;;;;1999.90;999.90;;;9.80;99.90;;;;;;4994591;28;20572;-76
2022/02/09 07:48:00;;;;;;;1999.90;999.90;;;9.80;99.90;;;;;;4993713;28;20911;-75
2022/02/09 07:53:06;;;;;;;1999.90;999.90;;;9.70;99.90;;;;;;4994799;28;20445;-76
2022/02/09 07:55:32;;;;;;;1999.90;999.90;;;9.60;99.90;;;;;;4995529;28;20456;-76
2022/02/09 07:57:58;;;;;;;1999.90;999.90;;;9.60;99.90;;;;;;4996233;28;20432;-76
2022/02/09 08:00:24;;;;;;;1999.90;999.90;;;9.60;99.90;;;;;;4995214;28;20170;-76
2022/02/09 08:02:52;;;;;;;1999.90;999.90;;;9.50;99.90;;;;;;4994481;28;20405;-76
2022/02/09 08:05:20;;;;;;;1999.90;999.90;;;9.40;99.90;;;;;;4994076;28;20667;-76
2022/02/09 08:07:46;;;;;;;1999.90;999.90;;;9.50;99.90;;;;;;4993092;28;20430;-76
2022/02/09 08:10:43;;;;;;;1999.90;999.90;;;9.40;99.90;;;;;;4994367;28;20408;-76
2022/02/09 08:29:21;;;;;;;1999.90;999.90;;;9.50;99.90;;;;;;4994817;28;20431;-76
2022/02/09 08:34:26;;;;;;;1999.90;999.90;;;9.50;99.90;;;;;;4994285;28;20440;-76
2022/02/09 08:36:53;;;;;;;1999.90;999.90;;;9.50;99.90;;;;;;4994752;28;21745;-76
2022/02/09 08:39:19;;;;;;;1999.90;999.90;;;9.50;99.90;;;;;;4994111;28;20209;-77
2022/02/09 08:41:45;;;;;;;1999.90;999.90;;;9.50;99.90;;;;;;4993868;28;20780;-76
2022/02/09 08:44:10;;;;;;;1999.90;999.90;;;9.40;99.90;;;;;;4993485;28;20202;-76
2022/02/09 08:46:37;;;;;;;1999.90;999.90;;;9.40;99.90;;;;;;4993577;28;20331;-76
2022/02/09 08:49:03;;;;;;;1999.90;999.90;;;9.40;99.90;;;;;;4993515;28;20180;-76
2022/02/09 08:51:29;;;;;;;1999.90;999.90;;;9.40;99.90;;;;;;4993510;28;20417;-76
2022/02/09 08:53:55;;;;;;;1999.90;999.90;;;9.40;99.90;;;;;;4993546;28;20405;-76
2022/02/09 08:56:24;;;;;;;1999.90;999.90;;;9.30;99.90;;;;;;4993049;28;20201;-76
2022/02/09 08:58:50;;;;;;;1999.90;999.90;;;9.30;99.90;;;;;;4994305;28;20402;-76
2022/02/09 09:01:30;;;;;;;1999.90;999.90;;;9.30;99.90;;;;;;4995134;28;20405;-76
2022/02/09 09:03:58;;;;;;;1999.90;999.90;;;9.30;99.90;;;;;;4993346;28;20432;-76
2022/02/09 09:06:27;;;;;;;1999.90;999.90;;;9.40;99.90;;;;;;4993375;28;20872;-77
2022/02/09 10:34:23;;;;;;;1999.90;999.90;;;9.70;99.90;;;;;;5030408;28;20466;-76
2022/02/09 10:36:53;;;;;;;1999.90;999.90;;;9.80;99.90;;;;;;5029132;28;20760;-76
2022/02/09 10:39:24;;;;;;;1999.90;999.90;;;9.80;99.90;;;;;;5028448;28;20421;-75
2022/02/09 10:42:13;;;;;;;1999.90;999.90;;;9.90;99.90;;;;;;5029558;28;20436;-75
2022/02/09 10:44:50;;;;;;;1999.90;999.90;;;9.90;99.90;;;;;;5030113;28;20458;-75
2022/02/09 10:47:23;;;;;;;1999.90;999.90;;;9.90;99.90;;;;;;5030970;28;20422;-75
2022/02/09 10:50:36;;;;;;;1999.90;999.90;;;10.00;99.90;;;;;;5029285;28;20459;-75
2022/02/09 10:53:18;;;;;;;1999.90;999.90;;;10.00;99.90;;;;;;5030218;28;20489;-75
2022/02/09 10:55:50;;;;;;;1999.90;999.90;;;10.00;99.90;;;;;;5029747;28;21048;-75
2022/02/09 10:58:23;;;;;;;1999.90;999.90;;;10.10;99.90;;;;;;5029575;28;20473;-75
2022/02/09 11:00:55;;;;;;;1999.90;999.90;;;10.10;99.90;;;;;;5030287;28;20534;-76
2022/02/09 11:03:27;;;;;;;1999.90;999.90;;;10.20;99.90;;;;;;5030152;28;20434;-76
2022/02/09 11:05:58;;;;;;;1999.90;999.90;;;10.20;99.90;;;;;;5030127;28;20573;-75
2022/02/09 11:08:25;;;;;;;1999.90;999.90;;;10.20;99.90;;;;;;5030673;28;20485;-75
2022/02/09 11:10:51;;;;;;;1999.90;999.90;;;10.30;99.90;;;;;;5028931;28;20916;-75
2022/02/09 11:13:24;;;;;;;1999.90;999.90;;;10.30;99.90;;;;;;5030679;28;20513;-76
2022/02/09 11:15:54;;;;;;;1999.90;999.90;;;10.40;99.90;;;;;;5029244;28;20464;-75
2022/02/09 11:18:22;;;;;;;1999.90;999.90;;;10.40;99.90;;;;;;5029510;28;20421;-76
2022/02/09 11:21:14;;;;;;;1999.90;999.90;;;10.50;99.90;;;;;;5028797;28;20532;-76
2022/02/09 11:24:11;;;;;;;1999.90;999.90;;;10.60;99.90;;;;;;5026692;28;20519;-76
2022/02/09 11:29:53;;;;;;;;;;;;;;;;;;;;;
2022/02/09 11:33:05;;;;;;;1999.90;999.90;;;10.80;99.90;;;;;;5030777;28;20895;-75
2022/02/09 11:35:27;;;;;;;1999.90;999.90;;;10.70;99.90;;;;;;5028601;28;21225;-75
2022/02/09 11:43:21;;;;;;;1999.90;999.90;;;10.70;99.90;;;;;;5030096;28;20411;-75
2022/02/09 12:00:06;;;;;;;1999.90;999.90;;;10.70;99.90;;;;;;5029339;28;20415;-75
2022/02/09 12:11:24;;;;;;;1999.90;999.90;;;11.00;99.90;;;;;;5028680;28;20464;-75
2022/02/09 12:14:16;;;;;;;1999.90;999.90;;;11.10;99.90;;;;;;5014531;28;20967;-75
2022/02/09 12:19:54;;;;;;;1999.90;999.90;;;11.20;99.90;;;;;;5028960;28;20439;-75
2022/02/09 12:22:19;;;;;;;1999.90;999.90;;;11.10;99.90;;;;;;5029681;28;20455;-75
2022/02/09 12:24:45;;;;;;;1999.90;999.90;;;11.10;99.90;;;;;;5028130;28;20421;-75
2022/02/09 12:27:13;;;;;;;1999.90;999.90;;;11.10;99.90;;;;;;5029166;28;20409;-75
2022/02/09 12:29:46;;;;;;;1999.90;999.90;;;11.10;99.90;;;;;;5027923;28;20600;-75
2022/02/09 12:32:14;;;;;;;1999.90;999.90;;;11.10;99.90;;;;;;5028721;28;20548;-75
2022/02/09 12:34:53;;;;;;;1999.90;999.90;;;11.10;99.90;;;;;;5026490;28;20464;-74
2022/02/09 12:37:19;;;;;;;1999.90;999.90;;;11.10;99.90;;;;;;5026960;28;20467;-75
2022/02/09 12:40:13;;;;;;;1999.90;999.90;;;11.20;99.90;;;;;;5028666;28;20892;-75
2022/02/09 12:43:02;;;;;;;1999.90;999.90;;;11.10;99.90;;;;;;5023474;28;20534;-75
2022/02/09 12:45:29;;;;;;;1999.90;999.90;;;11.10;99.90;;;;;;5027343;28;20450;-75
2022/02/09 12:48:00;;;;;;;1999.90;999.90;;;11.00;99.90;;;;;;5027981;28;20866;-75
2022/02/09 12:50:34;;;;;;;1999.90;999.90;;;11.00;99.90;;;;;;5027809;28;20447;-75
2022/02/09 12:53:02;;;;;;;1999.90;999.90;;;11.00;99.90;;;;;;5026448;28;20519;-75
2022/02/09 12:55:31;;;;;;;1999.90;999.90;;;11.10;99.90;;;;;;5028554;28;20464;-76
2022/02/09 12:58:05;;;;;;;1999.90;999.90;;;11.00;99.90;;;;;;5027532;28;20413;-76
2022/02/09 13:00:38;;;;;;;1999.90;999.90;;;11.00;99.90;;;;;;5026367;28;20438;-76
2022/02/09 13:03:06;;;;;;;1999.90;999.90;;;11.00;99.90;;;;;;5026965;28;20783;-76
2022/02/09 13:05:45;;;;;;;1999.90;999.90;;;11.00;99.90;;;;;;5026276;28;20454;-77
2022/02/09 13:08:17;;;;;;;1999.90;999.90;;;11.00;99.90;;;;;;5026362;28;20521;-77
2022/02/09 13:53:35;;;;;;;1999.90;999.90;;;11.30;99.90;;;;;;4877899;29;20473;-77
2022/02/09 14:35:41;;;;;;;1999.90;999.90;;;12.40;99.90;;;;;;4986016;28;20456;-77
2022/02/09 14:57:08;;;;;;;1999.90;999.90;;;13.10;99.90;;;;;;4988672;28;20432;-76
2022/02/09 15:02:13;;;;;;;1999.90;999.90;;;12.80;99.90;;;;;;4991254;28;20423;-77
2022/02/09 15:05:09;;;;;;;1999.90;999.90;;;12.80;99.90;;;;;;4989523;28;20509;-77
2022/02/09 15:10:17;;;;;;;1999.90;999.90;;;12.50;99.90;;;;;;4990611;28;20957;-77
2022/02/09 15:13:16;;;;;;;1999.90;999.90;;;12.50;99.90;;;;;;4990404;28;20414;-77
2022/02/09 15:15:58;;;;;;;1999.90;999.90;;;12.50;99.90;;;;;;4989950;28;21031;-77
2022/02/09 15:19:01;;;;;;;1999.90;999.90;;;12.50;99.90;;;;;;4990401;28;20842;-77
2022/02/09 15:21:37;;;;;;;1999.90;999.90;;;12.30;99.90;;;;;;4989784;28;20970;-76
2022/02/09 15:24:04;;;;;;;1999.90;999.90;;;12.20;99.90;;;;;;4990811;28;20418;-77
2022/02/09 15:26:29;;;;;;;1999.90;999.90;;;12.10;99.90;;;;;;4989447;28;20602;-76
2022/02/09 15:28:57;;;;;;;1999.90;999.90;;;12.00;99.90;;;;;;4989915;28;20522;-77
2022/02/09 15:31:31;;;;;;;1999.90;999.90;;;12.00;99.90;;;;;;4991022;28;20228;-77
2022/02/09 15:34:35;;;;;;;1999.90;999.90;;;12.00;99.90;;;;;;4990845;28;20427;-76
2022/02/09 15:39:39;;;;;;;1999.90;999.90;;;11.80;99.90;;;;;;4990245;28;20424;-76
2022/02/09 15:42:35;;;;;;;1999.90;999.90;;;11.80;99.90;;;;;;4989799;28;20413;-77
2022/02/09 15:59:14;;;;;;;1999.90;999.90;;;13.50;99.90;;;;;;4989824;28;20941;-77
2022/02/09 16:09:42;;;;;;;1999.90;999.90;;;13.50;99.90;;;;;;4988570;28;20182;-77
2022/02/09 16:22:55;;;;;;;1999.90;999.90;;;11.70;99.90;;;;;;4989535;28;21172;-77
2022/02/09 16:45:07;;;;;;;1999.90;999.90;;;11.10;99.90;;;;;;4987159;28;21203;-76
2022/02/09 16:47:56;;;;;;;1999.90;999.90;;;11.00;99.90;;;;;;4989266;28;20421;-77
2022/02/09 16:50:56;;;;;;;1999.90;999.90;;;10.80;99.90;;;;;;4987265;28;20426;-76
2022/02/09 17:25:23;;;;;;;1999.90;999.90;;;9.90;99.90;;;;;;4936421;29;20501;-74
2022/02/09 17:32:04;;;;;;;1999.90;999.90;;;9.80;99.90;;;;;;4990208;28;20862;-77
2022/02/09 17:53:25;;;;;;;1999.90;999.90;;;9.50;99.90;;;;;;4988503;28;20447;-75
2022/02/09 17:56:02;;;;;;;1999.90;999.90;;;9.40;99.90;;;;;;4986392;28;20522;-76
2022/02/09 17:58:34;;;;;;;1999.90;999.90;;;9.40;99.90;;;;;;4987971;28;21028;-77
2022/02/09 18:01:02;;;;;;;1999.90;999.90;;;9.40;99.90;;;;;;4988320;28;20436;-76
2022/02/09 18:03:28;;;;;;;1999.90;999.90;;;9.30;99.90;;;;;;4987306;28;20425;-76
2022/02/09 18:05:57;;;;;;;1999.90;999.90;;;9.30;99.90;;;;;;4988073;28;20794;-74
2022/02/09 18:08:37;;;;;;;1999.90;999.90;;;9.30;99.90;;;;;;4986550;28;21173;-76
2022/02/09 18:30:43;;;;;;;1999.90;999.90;;;8.80;99.90;;;;;;4987862;28;20926;-75
2022/02/09 18:33:25;;;;;;;1999.90;999.90;;;8.60;99.90;;;;;;4990854;28;20436;-77
2022/02/09 18:43:36;;;;;;;1999.90;999.90;;;8.70;99.90;;;;;;4992047;28;20413;-77
2022/02/09 18:46:16;;;;;;;1999.90;999.90;;;8.70;99.90;;;;;;4989864;28;20527;-77
2022/02/09 19:00:34;;;;;;;1999.90;999.90;;;8.60;99.90;;;;;;4991356;28;20419;-75
2022/02/09 19:03:00;;;;;;;1999.90;999.90;;;8.40;99.90;;;;;;4993699;28;20421;-73
2022/02/09 19:19:20;;;;;;;1999.90;999.90;;;8.20;99.90;;;;;;4994188;28;20459;-75
2022/02/09 19:48:13;;;;;;;1999.90;999.90;;;8.00;99.90;;;;;;4993603;28;20467;-75
2022/02/09 19:53:40;;;;;;;1999.90;999.90;;;7.90;99.90;;;;;;4992823;28;20459;-76
2022/02/09 19:56:13;;;;;;;1999.90;999.90;;;7.90;99.90;;;;;;4990573;28;20481;-77
2022/02/09 19:58:43;;;;;;;1999.90;999.90;;;7.80;99.90;;;;;;4991743;28;20425;-76
2022/02/09 20:01:14;;;;;;;1999.90;999.90;;;7.80;99.90;;;;;;4991165;28;20906;-76
2022/02/09 20:03:40;;;;;;;1999.90;999.90;;;7.80;99.90;;;;;;4987333;28;20477;-76
2022/02/09 20:06:09;;;;;;;1999.90;999.90;;;8.10;99.90;;;;;;4991686;28;20452;-75
2022/02/09 20:08:48;;;;;;;1999.90;999.90;;;7.60;99.90;;;;;;4990585;28;20425;-75
2022/02/09 20:11:17;;;;;;;1999.90;999.90;;;7.60;99.90;;;;;;4993046;28;20428;-76
2022/02/09 20:13:46;;;;;;;1999.90;999.90;;;7.60;99.90;;;;;;4993084;28;20423;-76
2022/02/09 20:16:25;;;;;;;1999.90;999.90;;;7.60;99.90;;;;;;4990130;28;20469;-77
2022/02/09 20:18:52;;;;;;;1999.90;999.90;;;7.60;99.90;;;;;;4990475;28;20424;-77
2022/02/09 20:21:27;;;;;;;1999.90;999.90;;;7.70;99.90;;;;;;4991955;28;20424;-76
2022/02/09 20:23:53;;;;;;;1999.90;999.90;;;7.70;99.90;;;;;;4991724;28;20410;-75
2022/02/09 20:27:02;;;;;;;1999.90;999.90;;;7.70;99.90;;;;;;4990890;28;21109;-76
2022/02/09 20:29:30;;;;;;;1999.90;999.90;;;7.70;99.90;;;;;;4992574;28;20520;-75
2022/02/09 20:32:15;;;;;;;1999.90;999.90;;;7.70;99.90;;;;;;4991338;28;20548;-76
2022/02/09 20:34:52;;;;;;;1999.90;999.90;;;7.70;99.90;;;;;;4989626;28;20483;-76
2022/02/09 20:37:20;;;;;;;1999.90;999.90;;;7.80;99.90;;;;;;4990418;28;20450;-76
2022/02/09 20:39:57;;;;;;;1999.90;999.90;;;7.70;99.90;;;;;;4990549;28;20412;-76
2022/02/09 20:42:24;;;;;;;1999.90;999.90;;;7.70;99.90;;;;;;4990799;28;20425;-76
2022/02/09 20:45:02;;;;;;;1999.90;999.90;;;7.80;99.90;;;;;;4990541;28;20464;-76
2022/02/09 20:47:30;;;;;;;1999.90;999.90;;;7.80;99.90;;;;;;4990680;28;20444;-76
2022/02/09 20:49:56;;;;;;;1999.90;999.90;;;7.50;99.90;;;;;;4990391;28;20970;-77
2022/02/09 20:52:22;;;;;;;1999.90;999.90;;;7.50;99.90;;;;;;4990684;28;20416;-77
2022/02/09 20:54:48;;;;;;;1999.90;999.90;;;7.50;99.90;;;;;;4990698;28;20787;-76
2022/02/09 20:57:14;;;;;;;1999.90;999.90;;;7.60;99.90;;;;;;4990654;28;20449;-75
2022/02/09 20:59:48;;;;;;;1999.90;999.90;;;7.80;99.90;;;;;;4991586;28;20456;-75
2022/02/09 21:05:28;;;;;;;1999.90;999.90;;;7.90;99.90;;;;;;4990444;28;20946;-77
2022/02/09 21:08:07;;;;;;;1999.90;999.90;;;8.00;99.90;;;;;;4991476;28;20815;-77
2022/02/09 21:13:35;;;;;;;1999.90;999.90;;;8.20;99.90;;;;;;4984804;28;20442;-77
2022/02/09 21:21:45;;;;;;;1999.90;999.90;;;7.90;99.90;;;;;;4992250;28;20448;-77
2022/02/09 21:54:14;;;;;;;1999.90;999.90;;;7.00;99.90;;;;;;4991449;28;20409;-76
2022/02/09 21:56:51;;;;;;;1999.90;999.90;;;6.90;99.90;;;;;;4989999;28;20460;-75
2022/02/09 21:59:40;;;;;;;1999.90;999.90;;;6.90;99.90;;;;;;4990130;28;20435;-76
2022/02/09 22:21:20;;;;;;;1999.90;999.90;;;6.50;99.90;;;;;;4995852;28;20420;-76
2022/02/09 22:56:09;;;;;;;1999.90;999.90;;;6.00;99.90;;;;;;4995657;28;20463;-77
2022/02/09 22:58:35;;;;;;;1999.90;999.90;;;6.00;99.90;;;;;;4995874;28;20600;-76
2022/02/09 23:03:43;;;;;;;1999.90;999.90;;;6.00;99.90;;;;;;4995773;28;20177;-76
